sensor_id;sensor_type;location;lat;lon;timestamp;pressure;altitude;pressure_sealevel;temperature;humidity
64253;BME280;50592;52.958;-7.470;2023-02-23T00:01:20;101224.19;;;3.48;100.00
64253;BME280;50592;52.958;-7.470;2023-02-23T00:03:49;101228.66;;;3.46;100.00
64253;BME280;50592;52.958;-7.470;2023-02-23T00:06:16;101225.22;;;3.45;100.00
64253;BME280;50592;52.958;-7.470;2023-02-23T00:08:43;101226.91;;;3.46;100.00
64253;BME280;50592;52.958;-7.470;2023-02-23T00:11:10;101227.69;;;3.49;100.00
64253;BME280;50592;52.958;-7.470;2023-02-23T00:13:38;101236.34;;;3.49;100.00
64253;BME280;50592;52.958;-7.470;2023-02-23T00:16:10;101231.97;;;3.50;100.00
64253;BME280;50592;52.958;-7.470;2023-02-23T00:18:50;101232.91;;;3.49;100.00
64253;BME280;50592;52.958;-7.470;2023-02-23T00:23:53;101238.78;;;3.52;100.00
64253;BME280;50592;52.958;-7.470;2023-02-23T00:26:21;101249.41;;;3.49;100.00
64253;BME280;50592;52.958;-7.470;2023-02-23T00:28:48;101241.72;;;3.46;100.00
64253;BME280;50592;52.958;-7.470;2023-02-23T00:31:15;101241.88;;;3.43;100.00
64253;BME280;50592;52.958;-7.470;2023-02-23T00:33:43;101237.75;;;3.39;100.00
64253;BME280;50592;52.958;-7.470;2023-02-23T00:36:11;101237.50;;;3.43;100.00
64253;BME280;50592;52.958;-7.470;2023-02-23T00:38:39;101249.72;;;3.43;100.00
64253;BME280;50592;52.958;-7.470;2023-02-23T00:41:09;101243.66;;;3.42;100.00
64253;BME280;50592;52.958;-7.470;2023-02-23T00:43:40;101241.81;;;3.44;100.00
64253;BME280;50592;52.958;-7.470;2023-02-23T00:46:13;101234.03;;;3.43;100.00
64253;BME280;50592;52.958;-7.470;2023-02-23T00:48:47;101229.75;;;3.42;100.00
64253;BME280;50592;52.958;-7.470;2023-02-23T00:51:14;101241.13;;;3.41;100.00
64253;BME280;50592;52.958;-7.470;2023-02-23T00:53:41;101234.19;;;3.40;100.00
64253;BME280;50592;52.958;-7.470;2023-02-23T00:56:09;101245.59;;;3.39;100.00
64253;BME280;50592;52.958;-7.470;2023-02-23T00:58:36;101243.06;;;3.37;100.00
64253;BME280;50592;52.958;-7.470;2023-02-23T01:01:06;101248.66;;;3.47;100.00
64253;BME280;50592;52.958;-7.470;2023-02-23T01:03:32;101250.25;;;3.50;100.00
64253;BME280;50592;52.958;-7.470;2023-02-23T01:06:00;101251.94;;;3.51;100.00
64253;BME280;50592;52.958;-7.470;2023-02-23T01:08:30;101258.03;;;3.51;100.00
64253;BME280;50592;52.958;-7.470;2023-02-23T01:10:56;101264.94;;;3.52;100.00
64253;BME280;50592;52.958;-7.470;2023-02-23T01:13:23;101263.41;;;3.48;100.00
64253;BME280;50592;52.958;-7.470;2023-02-23T01:15:49;101257.41;;;3.46;100.00
64253;BME280;50592;52.958;-7.470;2023-02-23T01:18:18;101259.34;;;3.42;100.00
64253;BME280;50592;52.958;-7.470;2023-02-23T01:20:45;101253.88;;;3.47;100.00
64253;BME280;50592;52.958;-7.470;2023-02-23T01:23:14;101270.47;;;3.46;100.00
64253;BME280;50592;52.958;-7.470;2023-02-23T01:25:41;101261.88;;;3.44;100.00
64253;BME280;50592;52.958;-7.470;2023-02-23T01:28:11;101270.47;;;3.46;100.00
64253;BME280;50592;52.958;-7.470;2023-02-23T01:30:37;101267.03;;;3.45;100.00
64253;BME280;50592;52.958;-7.470;2023-02-23T01:33:05;101275.84;;;3.43;100.00
64253;BME280;50592;52.958;-7.470;2023-02-23T01:35:31;101267.19;;;3.42;100.00
64253;BME280;50592;52.958;-7.470;2023-02-23T01:38:00;101271.47;;;3.43;100.00
64253;BME280;50592;52.958;-7.470;2023-02-23T01:40:27;101282.94;;;3.41;100.00
64253;BME280;50592;52.958;-7.470;2023-02-23T01:42:58;101271.72;;;3.39;100.00
64253;BME280;50592;52.958;-7.470;2023-02-23T01:45:28;101279.56;;;3.39;100.00
64253;BME280;50592;52.958;-7.470;2023-02-23T01:47:58;101275.31;;;3.36;100.00
64253;BME280;50592;52.958;-7.470;2023-02-23T01:50:38;101280.53;;;3.36;100.00
64253;BME280;50592;52.958;-7.470;2023-02-23T01:53:07;101269.66;;;3.28;100.00
64253;BME280;50592;52.958;-7.470;2023-02-23T01:55:33;101278.53;;;3.23;100.00
64253;BME280;50592;52.958;-7.470;2023-02-23T01:58:11;101276.94;;;3.21;100.00
64253;BME280;50592;52.958;-7.470;2023-02-23T02:00:49;101292.69;;;3.19;100.00
64253;BME280;50592;52.958;-7.470;2023-02-23T02:03:18;101286.91;;;3.13;100.00
64253;BME280;50592;52.958;-7.470;2023-02-23T02:05:48;101295.59;;;3.13;100.00
64253;BME280;50592;52.958;-7.470;2023-02-23T02:08:15;101297.34;;;3.13;100.00
64253;BME280;50592;52.958;-7.470;2023-02-23T02:10:43;101289.50;;;3.13;100.00
64253;BME280;50592;52.958;-7.470;2023-02-23T02:13:16;101304.28;;;3.14;100.00
64253;BME280;50592;52.958;-7.470;2023-02-23T02:32:36;101303.34;;;3.15;100.00
64253;BME280;50592;52.958;-7.470;2023-02-23T02:37:52;101301.03;;;3.08;100.00
64253;BME280;50592;52.958;-7.470;2023-02-23T02:45:54;101301.75;;;3.12;100.00
64253;BME280;50592;52.958;-7.470;2023-02-23T02:51:07;101303.66;;;3.08;100.00
64253;BME280;50592;52.958;-7.470;2023-02-23T02:54:02;101316.72;;;3.08;100.00
64253;BME280;50592;52.958;-7.470;2023-02-23T02:56:37;101322.84;;;3.07;100.00
64253;BME280;50592;52.958;-7.470;2023-02-23T02:59:15;101314.19;;;3.07;100.00
64253;BME280;50592;52.958;-7.470;2023-02-23T03:02:01;101327.88;;;3.12;100.00
64253;BME280;50592;52.958;-7.470;2023-02-23T03:04:46;101326.16;;;3.11;100.00
64253;BME280;50592;52.958;-7.470;2023-02-23T03:07:39;101339.06;;;3.14;100.00
64253;BME280;50592;52.958;-7.470;2023-02-23T03:16:34;101328.34;;;3.01;100.00
64253;BME280;50592;52.958;-7.470;2023-02-23T03:19:25;101340.53;;;3.02;100.00
64253;BME280;50592;52.958;-7.470;2023-02-23T03:22:29;101330.97;;;3.01;100.00
64253;BME280;50592;52.958;-7.470;2023-02-23T03:25:33;101319.84;;;2.97;100.00
64253;BME280;50592;52.958;-7.470;2023-02-23T03:28:31;101325.06;;;2.97;100.00
64253;BME280;50592;52.958;-7.470;2023-02-23T03:34:21;101340.19;;;2.91;100.00
64253;BME280;50592;52.958;-7.470;2023-02-23T03:37:16;101340.97;;;2.93;100.00
64253;BME280;50592;52.958;-7.470;2023-02-23T03:42:52;101342.72;;;2.92;100.00
64253;BME280;50592;52.958;-7.470;2023-02-23T03:45:39;101344.75;;;2.85;100.00
64253;BME280;50592;52.958;-7.470;2023-02-23T03:48:25;101344.84;;;2.84;100.00
64253;BME280;50592;52.958;-7.470;2023-02-23T03:51:11;101363.19;;;2.82;100.00
64253;BME280;50592;52.958;-7.470;2023-02-23T03:54:03;101363.09;;;2.84;100.00
64253;BME280;50592;52.958;-7.470;2023-02-23T03:56:51;101358.81;;;2.83;100.00
64253;BME280;50592;52.958;-7.470;2023-02-23T03:59:45;101367.28;;;2.88;100.00
64253;BME280;50592;52.958;-7.470;2023-02-23T04:02:40;101359.59;;;2.85;100.00
64253;BME280;50592;52.958;-7.470;2023-02-23T04:05:27;101375.88;;;2.90;100.00
64253;BME280;50592;52.958;-7.470;2023-02-23T04:08:14;101366.44;;;2.88;100.00
64253;BME280;50592;52.958;-7.470;2023-02-23T04:11:27;101374.28;;;2.88;100.00
64253;BME280;50592;52.958;-7.470;2023-02-23T04:14:28;101373.34;;;2.89;100.00
64253;BME280;50592;52.958;-7.470;2023-02-23T04:16:56;101371.66;;;2.88;100.00
64253;BME280;50592;52.958;-7.470;2023-02-23T04:19:26;101379.50;;;2.88;100.00
64253;BME280;50592;52.958;-7.470;2023-02-23T04:21:53;101379.63;;;2.84;100.00
64253;BME280;50592;52.958;-7.470;2023-02-23T04:24:18;101378.84;;;2.82;100.00
64253;BME280;50592;52.958;-7.470;2023-02-23T04:26:44;101371.94;;;2.81;100.00
64253;BME280;50592;52.958;-7.470;2023-02-23T04:29:12;101378.06;;;2.80;100.00
64253;BME280;50592;52.958;-7.470;2023-02-23T04:31:38;101381.75;;;2.76;100.00
64253;BME280;50592;52.958;-7.470;2023-02-23T04:34:06;101384.34;;;2.76;100.00
64253;BME280;50592;52.958;-7.470;2023-02-23T04:36:33;101381.75;;;2.76;100.00
64253;BME280;50592;52.958;-7.470;2023-02-23T04:38:58;101375.88;;;2.71;100.00
64253;BME280;50592;52.958;-7.470;2023-02-23T04:41:24;101379.34;;;2.71;100.00
64253;BME280;50592;52.958;-7.470;2023-02-23T04:43:50;101379.41;;;2.70;100.00
64253;BME280;50592;52.958;-7.470;2023-02-23T04:46:16;101380.47;;;2.66;100.00
64253;BME280;50592;52.958;-7.470;2023-02-23T04:48:41;101386.59;;;2.65;100.00
64253;BME280;50592;52.958;-7.470;2023-02-23T04:51:07;101389.22;;;2.65;100.00
64253;BME280;50592;52.958;-7.470;2023-02-23T04:53:33;101380.56;;;2.64;100.00
64253;BME280;50592;52.958;-7.470;2023-02-23T04:55:59;101378.00;;;2.63;100.00
64253;BME280;50592;52.958;-7.470;2023-02-23T04:58:24;101374.47;;;2.64;100.00
64253;BME280;50592;52.958;-7.470;2023-02-23T05:00:51;101376.28;;;2.62;100.00
64253;BME280;50592;52.958;-7.470;2023-02-23T05:03:17;101373.63;;;2.63;100.00
64253;BME280;50592;52.958;-7.470;2023-02-23T05:05:42;101373.69;;;2.62;100.00
64253;BME280;50592;52.958;-7.470;2023-02-23T05:08:09;101370.31;;;2.59;100.00
64253;BME280;50592;52.958;-7.470;2023-02-23T05:10:34;101360.72;;;2.60;100.00
64253;BME280;50592;52.958;-7.470;2023-02-23T05:13:01;101350.97;;;2.64;100.00
64253;BME280;50592;52.958;-7.470;2023-02-23T05:15:27;101353.66;;;2.62;100.00
64253;BME280;50592;52.958;-7.470;2023-02-23T05:17:54;101362.50;;;2.59;100.00
64253;BME280;50592;52.958;-7.470;2023-02-23T05:20:20;101359.88;;;2.59;100.00
64253;BME280;50592;52.958;-7.470;2023-02-23T05:22:47;101371.22;;;2.58;100.00
64253;BME280;50592;52.958;-7.470;2023-02-23T05:25:13;101366.13;;;2.55;100.00
64253;BME280;50592;52.958;-7.470;2023-02-23T05:27:40;101366.91;;;2.57;100.00
64253;BME280;50592;52.958;-7.470;2023-02-23T05:30:06;101366.19;;;2.54;100.00
64253;BME280;50592;52.958;-7.470;2023-02-23T05:32:33;101369.66;;;2.54;100.00
64253;BME280;50592;52.958;-7.470;2023-02-23T05:34:59;101363.72;;;2.51;100.00
64253;BME280;50592;52.958;-7.470;2023-02-23T05:37:25;101360.25;;;2.50;100.00
64253;BME280;50592;52.958;-7.470;2023-02-23T05:39:51;101356.03;;;2.47;100.00
64253;BME280;50592;52.958;-7.470;2023-02-23T05:42:17;101350.91;;;2.46;100.00
64253;BME280;50592;52.958;-7.470;2023-02-23T05:44:43;101352.78;;;2.42;100.00
64253;BME280;50592;52.958;-7.470;2023-02-23T05:47:09;101349.34;;;2.42;100.00
64253;BME280;50592;52.958;-7.470;2023-02-23T05:49:35;101351.03;;;2.43;100.00
64253;BME280;50592;52.958;-7.470;2023-02-23T05:52:01;101359.00;;;2.40;100.00
64253;BME280;50592;52.958;-7.470;2023-02-23T05:54:27;101358.28;;;2.36;100.00
64253;BME280;50592;52.958;-7.470;2023-02-23T05:56:53;101357.53;;;2.34;100.00
64253;BME280;50592;52.958;-7.470;2023-02-23T05:59:19;101367.97;;;2.34;100.00
64253;BME280;50592;52.958;-7.470;2023-02-23T06:01:44;101370.63;;;2.32;100.00
64253;BME280;50592;52.958;-7.470;2023-02-23T06:04:10;101372.59;;;2.27;100.00
64253;BME280;50592;52.958;-7.470;2023-02-23T06:06:36;101371.88;;;2.23;100.00
64253;BME280;50592;52.958;-7.470;2023-02-23T06:09:03;101378.13;;;2.19;100.00
64253;BME280;50592;52.958;-7.470;2023-02-23T06:11:28;101373.41;;;2.08;100.00
64253;BME280;50592;52.958;-7.470;2023-02-23T06:13:57;101384.16;;;2.01;100.00
64253;BME280;50592;52.958;-7.470;2023-02-23T06:16:25;101376.41;;;1.99;100.00
64253;BME280;50592;52.958;-7.470;2023-02-23T06:18:51;101366.78;;;2.00;100.00
64253;BME280;50592;52.958;-7.470;2023-02-23T06:21:16;101371.19;;;1.99;100.00
64253;BME280;50592;52.958;-7.470;2023-02-23T06:23:42;101375.59;;;1.97;100.00
64253;BME280;50592;52.958;-7.470;2023-02-23T06:26:08;101376.50;;;1.96;100.00
64253;BME280;50592;52.958;-7.470;2023-02-23T06:28:34;101383.50;;;1.95;100.00
64253;BME280;50592;52.958;-7.470;2023-02-23T06:31:00;101386.16;;;1.94;100.00
64253;BME280;50592;52.958;-7.470;2023-02-23T06:33:25;101393.91;;;1.95;100.00
64253;BME280;50592;52.958;-7.470;2023-02-23T06:35:52;101395.47;;;2.00;100.00
64253;BME280;50592;52.958;-7.470;2023-02-23T06:38:19;101386.56;;;2.05;100.00
64253;BME280;50592;52.958;-7.470;2023-02-23T06:40:45;101388.97;;;2.10;100.00
64253;BME280;50592;52.958;-7.470;2023-02-23T06:43:10;101399.28;;;2.13;100.00
64253;BME280;50592;52.958;-7.470;2023-02-23T06:45:37;101401.94;;;2.12;100.00
64253;BME280;50592;52.958;-7.470;2023-02-23T06:48:03;101401.09;;;2.11;100.00
64253;BME280;50592;52.958;-7.470;2023-02-23T06:50:28;101405.59;;;2.07;100.00
64253;BME280;50592;52.958;-7.470;2023-02-23T06:52:54;101410.16;;;2.02;100.00
64253;BME280;50592;52.958;-7.470;2023-02-23T06:55:22;101408.72;;;1.95;100.00
64253;BME280;50592;52.958;-7.470;2023-02-23T06:57:48;101413.25;;;1.90;100.00
64253;BME280;50592;52.958;-7.470;2023-02-23T07:00:16;101421.22;;;1.86;100.00
64253;BME280;50592;52.958;-7.470;2023-02-23T07:02:42;101428.97;;;1.88;100.00
64253;BME280;50592;52.958;-7.470;2023-02-23T07:05:10;101434.31;;;1.85;100.00
64253;BME280;50592;52.958;-7.470;2023-02-23T07:07:36;101435.41;;;1.79;100.00
64253;BME280;50592;52.958;-7.470;2023-02-23T07:10:02;101433.00;;;1.75;100.00
64253;BME280;50592;52.958;-7.470;2023-02-23T07:12:29;101434.13;;;1.69;100.00
64253;BME280;50592;52.958;-7.470;2023-02-23T07:14:56;101441.06;;;1.68;100.00
64253;BME280;50592;52.958;-7.470;2023-02-23T07:17:21;101441.00;;;1.70;100.00
64253;BME280;50592;52.958;-7.470;2023-02-23T07:19:47;101441.88;;;1.70;100.00
64253;BME280;50592;52.958;-7.470;2023-02-23T07:22:13;101441.88;;;1.70;100.00
64253;BME280;50592;52.958;-7.470;2023-02-23T07:24:39;101445.38;;;1.69;100.00
64253;BME280;50592;52.958;-7.470;2023-02-23T07:27:05;101447.91;;;1.71;100.00
64253;BME280;50592;52.958;-7.470;2023-02-23T07:29:30;101449.63;;;1.72;100.00
64253;BME280;50592;52.958;-7.470;2023-02-23T07:31:56;101453.13;;;1.71;100.00
64253;BME280;50592;52.958;-7.470;2023-02-23T07:34:22;101454.91;;;1.70;100.00
64253;BME280;50592;52.958;-7.470;2023-02-23T07:36:48;101460.06;;;1.72;100.00
64253;BME280;50592;52.958;-7.470;2023-02-23T07:39:14;101466.16;;;1.71;100.00
64253;BME280;50592;52.958;-7.470;2023-02-23T07:41:39;101470.47;;;1.72;100.00
64253;BME280;50592;52.958;-7.470;2023-02-23T07:44:16;101471.31;;;1.72;100.00
64253;BME280;50592;52.958;-7.470;2023-02-23T07:46:41;101467.75;;;1.75;100.00
64253;BME280;50592;52.958;-7.470;2023-02-23T07:49:07;101457.19;;;1.78;100.00
64253;BME280;50592;52.958;-7.470;2023-02-23T07:51:33;101467.56;;;1.80;100.00
64253;BME280;50592;52.958;-7.470;2023-02-23T07:54:03;101477.00;;;1.82;100.00
64253;BME280;50592;52.958;-7.470;2023-02-23T07:56:29;101478.69;;;1.83;100.00
64253;BME280;50592;52.958;-7.470;2023-02-23T07:58:55;101475.19;;;1.84;100.00
64253;BME280;50592;52.958;-7.470;2023-02-23T08:01:21;101472.47;;;1.88;100.00
64253;BME280;50592;52.958;-7.470;2023-02-23T08:03:47;101476.69;;;1.90;100.00
64253;BME280;50592;52.958;-7.470;2023-02-23T08:06:17;101474.63;;;1.98;100.00
64253;BME280;50592;52.958;-7.470;2023-02-23T08:08:44;101471.84;;;2.03;100.00
64253;BME280;50592;52.958;-7.470;2023-02-23T08:11:10;101481.09;;;2.10;100.00
64253;BME280;50592;52.958;-7.470;2023-02-23T08:13:36;101474.72;;;2.18;100.00
64253;BME280;50592;52.958;-7.470;2023-02-23T08:16:05;101474.41;;;2.26;100.00
64253;BME280;50592;52.958;-7.470;2023-02-23T08:18:31;101470.75;;;2.30;100.00
64253;BME280;50592;52.958;-7.470;2023-02-23T08:21:01;101474.72;;;2.39;100.00
64253;BME280;50592;52.958;-7.470;2023-02-23T08:23:33;101466.50;;;2.48;100.00
64253;BME280;50592;52.958;-7.470;2023-02-23T08:26:00;101481.09;;;2.52;100.00
64253;BME280;50592;52.958;-7.470;2023-02-23T08:28:27;101481.69;;;2.59;100.00
64253;BME280;50592;52.958;-7.470;2023-02-23T08:30:53;101484.09;;;2.64;100.00
64253;BME280;50592;52.958;-7.470;2023-02-23T08:33:19;101475.94;;;2.71;100.00
64253;BME280;50592;52.958;-7.470;2023-02-23T08:35:45;101475.59;;;2.79;100.00
64253;BME280;50592;52.958;-7.470;2023-02-23T08:38:11;101478.00;;;2.84;100.00
64253;BME280;50592;52.958;-7.470;2023-02-23T08:40:37;101474.44;;;2.87;100.00
64253;BME280;50592;52.958;-7.470;2023-02-23T08:43:02;101477.66;;;2.92;100.00
64253;BME280;50592;52.958;-7.470;2023-02-23T08:45:28;101471.41;;;2.96;100.00
64253;BME280;50592;52.958;-7.470;2023-02-23T08:47:55;101475.50;;;3.02;100.00
64253;BME280;50592;52.958;-7.470;2023-02-23T08:50:21;101474.50;;;3.04;100.00
64253;BME280;50592;52.958;-7.470;2023-02-23T08:52:47;101470.84;;;3.08;100.00
64253;BME280;50592;52.958;-7.470;2023-02-23T08:55:12;101480.22;;;3.13;100.00
64253;BME280;50592;52.958;-7.470;2023-02-23T08:57:41;101487.63;;;3.22;100.00
64253;BME280;50592;52.958;-7.470;2023-02-23T09:00:07;101473.31;;;3.31;100.00
64253;BME280;50592;52.958;-7.470;2023-02-23T09:02:39;101483.13;;;3.45;100.00
64253;BME280;50592;52.958;-7.470;2023-02-23T09:05:06;101488.91;;;3.52;100.00
64253;BME280;50592;52.958;-7.470;2023-02-23T09:07:32;101495.59;;;3.57;100.00
64253;BME280;50592;52.958;-7.470;2023-02-23T09:09:58;101499.84;;;3.60;100.00
64253;BME280;50592;52.958;-7.470;2023-02-23T09:12:24;101510.84;;;3.67;100.00
64253;BME280;50592;52.958;-7.470;2023-02-23T09:14:50;101507.81;;;3.76;100.00
64253;BME280;50592;52.958;-7.470;2023-02-23T09:17:19;101513.44;;;3.86;100.00
64253;BME280;50592;52.958;-7.470;2023-02-23T09:19:45;101509.47;;;3.96;100.00
64253;BME280;50592;52.958;-7.470;2023-02-23T09:22:10;101508.25;;;4.04;100.00
64253;BME280;50592;52.958;-7.470;2023-02-23T09:24:36;101509.56;;;4.13;100.00
64253;BME280;50592;52.958;-7.470;2023-02-23T09:27:03;101515.19;;;4.22;100.00
64253;BME280;50592;52.958;-7.470;2023-02-23T09:29:32;101515.56;;;4.32;100.00
64253;BME280;50592;52.958;-7.470;2023-02-23T09:31:58;101510.72;;;4.42;100.00
64253;BME280;50592;52.958;-7.470;2023-02-23T09:34:24;101509.31;;;4.53;100.00
64253;BME280;50592;52.958;-7.470;2023-02-23T09:36:50;101514.00;;;4.64;100.00
64253;BME280;50592;52.958;-7.470;2023-02-23T09:39:16;101515.25;;;4.74;100.00
64253;BME280;50592;52.958;-7.470;2023-02-23T09:47:17;101517.84;;;4.92;100.00
64253;BME280;50592;52.958;-7.470;2023-02-23T09:49:47;101507.03;;;4.98;100.00
64253;BME280;50592;52.958;-7.470;2023-02-23T09:52:21;101516.84;;;5.11;100.00
64253;BME280;50592;52.958;-7.470;2023-02-23T09:54:48;101519.16;;;5.17;100.00
64253;BME280;50592;52.958;-7.470;2023-02-23T09:57:22;101524.13;;;5.21;100.00
64253;BME280;50592;52.958;-7.470;2023-02-23T09:59:50;101520.41;;;5.26;100.00
64253;BME280;50592;52.958;-7.470;2023-02-23T10:02:27;101518.06;;;5.37;100.00
64253;BME280;50592;52.958;-7.470;2023-02-23T10:05:01;101523.47;;;5.50;100.00
64253;BME280;50592;52.958;-7.470;2023-02-23T10:07:52;101512.47;;;5.59;100.00
64253;BME280;50592;52.958;-7.470;2023-02-23T10:13:03;101514.50;;;5.70;100.00
64253;BME280;50592;52.958;-7.470;2023-02-23T10:21:39;101497.25;;;5.82;100.00
64253;BME280;50592;52.958;-7.470;2023-02-23T10:24:26;101504.00;;;5.87;100.00
64253;BME280;50592;52.958;-7.470;2023-02-23T10:27:04;101501.97;;;5.92;100.00
64253;BME280;50592;52.958;-7.470;2023-02-23T10:29:36;101500.94;;;5.94;100.00
64253;BME280;50592;52.958;-7.470;2023-02-23T10:32:30;101494.28;;;6.05;100.00
64253;BME280;50592;52.958;-7.470;2023-02-23T10:34:58;101494.56;;;6.15;100.00
64253;BME280;50592;52.958;-7.470;2023-02-23T10:37:24;101495.47;;;6.30;100.00
64253;BME280;50592;52.958;-7.470;2023-02-23T10:39:50;101495.38;;;6.31;100.00
64253;BME280;50592;52.958;-7.470;2023-02-23T10:42:24;101488.16;;;6.35;100.00
64253;BME280;50592;52.958;-7.470;2023-02-23T10:44:55;101489.56;;;6.41;100.00
64253;BME280;50592;52.958;-7.470;2023-02-23T10:47:25;101485.00;;;6.44;100.00
64253;BME280;50592;52.958;-7.470;2023-02-23T10:49:52;101490.25;;;6.44;100.00
64253;BME280;50592;52.958;-7.470;2023-02-23T10:54:51;101503.22;;;6.62;100.00
64253;BME280;50592;52.958;-7.470;2023-02-23T10:57:28;101503.22;;;6.62;100.00
64253;BME280;50592;52.958;-7.470;2023-02-23T11:02:46;101502.09;;;6.66;100.00
64253;BME280;50592;52.958;-7.470;2023-02-23T11:05:42;101503.13;;;6.78;100.00
64253;BME280;50592;52.958;-7.470;2023-02-23T11:08:10;101503.59;;;6.85;100.00
64253;BME280;50592;52.958;-7.470;2023-02-23T11:13:41;101496.84;;;7.10;100.00
64253;BME280;50592;52.958;-7.470;2023-02-23T11:16:11;101493.91;;;7.15;100.00
64253;BME280;50592;52.958;-7.470;2023-02-23T11:18:59;101490.41;;;7.29;100.00
64253;BME280;50592;52.958;-7.470;2023-02-23T11:24:15;101481.28;;;7.35;100.00
64253;BME280;50592;52.958;-7.470;2023-02-23T11:26:45;101471.25;;;7.27;100.00
64253;BME280;50592;52.958;-7.470;2023-02-23T11:29:39;101473.59;;;7.31;100.00
64253;BME280;50592;52.958;-7.470;2023-02-23T11:32:19;101467.13;;;7.37;100.00
64253;BME280;50592;52.958;-7.470;2023-02-23T11:34:47;101459.03;;;7.40;100.00
64253;BME280;50592;52.958;-7.470;2023-02-23T11:37:32;101458.06;;;7.41;100.00
64253;BME280;50592;52.958;-7.470;2023-02-23T11:40:00;101464.63;;;7.49;100.00
64253;BME280;50592;52.958;-7.470;2023-02-23T11:42:31;101472.50;;;7.49;100.00
64253;BME280;50592;52.958;-7.470;2023-02-23T11:45:15;101462.75;;;7.51;100.00
64253;BME280;50592;52.958;-7.470;2023-02-23T11:47:46;101467.59;;;7.57;100.00
64253;BME280;50592;52.958;-7.470;2023-02-23T11:50:27;101465.34;;;7.65;100.00
64253;BME280;50592;52.958;-7.470;2023-02-23T11:53:15;101453.59;;;7.56;100.00
64253;BME280;50592;52.958;-7.470;2023-02-23T11:55:51;101461.44;;;7.71;100.00
64253;BME280;50592;52.958;-7.470;2023-02-23T11:58:32;101460.72;;;7.82;100.00
64253;BME280;50592;52.958;-7.470;2023-02-23T12:01:06;101464.88;;;7.86;100.00
64253;BME280;50592;52.958;-7.470;2023-02-23T12:03:49;101454.84;;;7.78;100.00
64253;BME280;50592;52.958;-7.470;2023-02-23T12:06:26;101458.75;;;7.86;100.00
64253;BME280;50592;52.958;-7.470;2023-02-23T12:08:59;101450.66;;;7.89;100.00
64253;BME280;50592;52.958;-7.470;2023-02-23T12:11:33;101447.81;;;7.92;100.00
64253;BME280;50592;52.958;-7.470;2023-02-23T12:14:08;101447.72;;;7.93;100.00
64253;BME280;50592;52.958;-7.470;2023-02-23T12:16:49;101444.56;;;8.01;100.00
64253;BME280;50592;52.958;-7.470;2023-02-23T12:19:35;101439.19;;;7.90;100.00
64253;BME280;50592;52.958;-7.470;2023-02-23T12:24:48;101436.06;;;7.98;100.00
64253;BME280;50592;52.958;-7.470;2023-02-23T12:30:04;101431.09;;;8.06;100.00
64253;BME280;50592;52.958;-7.470;2023-02-23T12:33:11;101427.28;;;7.97;100.00
64253;BME280;50592;52.958;-7.470;2023-02-23T12:35:44;101415.09;;;7.96;100.00
64253;BME280;50592;52.958;-7.470;2023-02-23T12:39:00;101420.44;;;8.07;100.00
64253;BME280;50592;52.958;-7.470;2023-02-23T12:41:18;101412.88;;;8.03;100.00
64253;BME280;50592;52.958;-7.470;2023-02-23T12:43:49;101425.00;;;8.05;100.00
64253;BME280;50592;52.958;-7.470;2023-02-23T12:46:25;101419.84;;;8.17;100.00
64253;BME280;50592;52.958;-7.470;2023-02-23T12:51:57;101398.97;;;8.27;100.00
64253;BME280;50592;52.958;-7.470;2023-02-23T12:54:25;101414.88;;;8.25;100.00
64253;BME280;50592;52.958;-7.470;2023-02-23T12:57:09;101396.56;;;8.37;100.00
64253;BME280;50592;52.958;-7.470;2023-02-23T13:02:43;101386.34;;;8.45;100.00
64253;BME280;50592;52.958;-7.470;2023-02-23T13:15:44;101378.94;;;8.63;100.00
64253;BME280;50592;52.958;-7.470;2023-02-23T13:18:26;101377.69;;;8.69;100.00
64253;BME280;50592;52.958;-7.470;2023-02-23T13:23:35;101373.91;;;8.60;100.00
64253;BME280;50592;52.958;-7.470;2023-02-23T13:29:32;101359.38;;;8.54;100.00
64253;BME280;50592;52.958;-7.470;2023-02-23T13:32:01;101362.84;;;8.42;100.00
64253;BME280;50592;52.958;-7.470;2023-02-23T13:34:50;101354.19;;;8.40;100.00
64253;BME280;50592;52.958;-7.470;2023-02-23T13:37:20;101356.72;;;8.41;100.00
64253;BME280;50592;52.958;-7.470;2023-02-23T13:45:30;101354.31;;;8.25;100.00
64253;BME280;50592;52.958;-7.470;2023-02-23T13:50:55;101355.25;;;8.24;100.00
64253;BME280;50592;52.958;-7.470;2023-02-23T13:53:27;101371.72;;;8.28;100.00
64253;BME280;50592;52.958;-7.470;2023-02-23T13:55:59;101373.91;;;8.21;100.00
64253;BME280;50592;52.958;-7.470;2023-02-23T13:58:29;101357.38;;;8.19;100.00
64253;BME280;50592;52.958;-7.470;2023-02-23T14:01:12;101355.59;;;8.19;100.00
64253;BME280;50592;52.958;-7.470;2023-02-23T14:03:44;101362.22;;;8.25;100.00
64253;BME280;50592;52.958;-7.470;2023-02-23T14:06:14;101364.03;;;8.25;100.00
64253;BME280;50592;52.958;-7.470;2023-02-23T14:08:42;101363.81;;;8.28;100.00
64253;BME280;50592;52.958;-7.470;2023-02-23T14:11:09;101363.06;;;8.26;100.00
64253;BME280;50592;52.958;-7.470;2023-02-23T14:13:40;101354.09;;;8.28;100.00
64253;BME280;50592;52.958;-7.470;2023-02-23T14:16:21;101355.47;;;8.21;100.00
64253;BME280;50592;52.958;-7.470;2023-02-23T14:19:04;101341.25;;;8.24;100.00
64253;BME280;50592;52.958;-7.470;2023-02-23T14:21:47;101338.81;;;8.21;100.00
64253;BME280;50592;52.958;-7.470;2023-02-23T14:24:22;101328.28;;;8.21;100.00
64253;BME280;50592;52.958;-7.470;2023-02-23T14:29:29;101327.03;;;8.13;100.00
64253;BME280;50592;52.958;-7.470;2023-02-23T14:35:01;101326.09;;;8.14;100.00
64253;BME280;50592;52.958;-7.470;2023-02-23T14:40:23;101327.84;;;8.27;100.00
64253;BME280;50592;52.958;-7.470;2023-02-23T14:42:56;101329.56;;;8.28;100.00
64253;BME280;50592;52.958;-7.470;2023-02-23T14:45:31;101326.94;;;8.28;100.00
64253;BME280;50592;52.958;-7.470;2023-02-23T14:48:02;101330.94;;;8.21;100.00
64253;BME280;50592;52.958;-7.470;2023-02-23T14:50:32;101331.25;;;8.16;100.00
64253;BME280;50592;52.958;-7.470;2023-02-23T14:52:59;101332.00;;;8.18;100.00
64253;BME280;50592;52.958;-7.470;2023-02-23T14:55:28;101323.56;;;8.26;100.00